Time;durP1;ratioP1;P1;durP2;ratioP2;P2;SDS_P1;SDS_P2;PMS_P1;PMS_P2;Temp;Humidity;BMP_temperature;BMP_pressure;BME280_temperature;BME280_humidity;BME280_pressure;Samples;Min_cycle;Max_cycle;Signal;HPM_P1;HPM_P2
2022/04/21 00:00:26;;;;;;;;;;;;;;;4.71;95.49;98025.81;3223863;22;19938;-79
2022/04/21 00:01:51;;;;;;;;;;;;;;;4.73;95.25;98028.38;3223490;23;20053;-79
2022/04/21 00:03:07;;;;;;;;;;;;;;;4.72;95.23;98018.88;3223418;23;20326;-78
2022/04/21 00:04:23;;;;;;;;;;;;;;;4.74;93.98;98030.09;3223947;22;19923;-79
2022/04/21 00:05:38;;;;;;;;;;;;;;;4.76;94.21;98028.34;3223642;22;20239;-78
2022/04/21 00:06:53;;;;;;;;;;;;;;;4.76;94.26;98021.41;3224022;22;19977;-78
2022/04/21 00:08:10;;;;;;;;;;;;;;;4.77;94.24;98028.31;3223117;23;19931;-79
2022/04/21 00:09:25;;;;;;;;;;;;;;;4.79;94.34;98023.97;3223200;23;19947;-78
2022/04/21 00:10:40;;;;;;;;;;;;;;;4.79;94.67;98017.94;3224201;23;20664;-80
2022/04/21 00:11:56;;;;;;;;;;;;;;;4.81;94.23;98016.19;3224140;23;19923;-79
2022/04/21 00:13:12;;;;;;;;;;;;;;;4.84;94.31;98023.91;3223921;23;19923;-78
2022/04/21 00:14:27;;;;;;;;;;;;;;;4.81;93.64;98018.78;3224091;22;19950;-79
2022/04/21 00:15:43;;;;;;;;;;;;;;;4.83;93.70;98023.97;3223964;23;19923;-79
2022/04/21 00:16:58;;;;;;;;;;;;;;;4.84;93.57;98018.72;3224289;22;19923;-78
2022/04/21 00:18:13;;;;;;;;;;;;;;;4.83;93.35;98019.63;3223538;23;19930;-79
2022/04/21 00:19:29;;;;;;;;;;;;;;;4.80;93.75;98025.69;3224328;22;19924;-79
2022/04/21 00:20:44;;;;;;;;;;;;;;;4.79;94.76;98028.31;3223820;22;19946;-79
2022/04/21 00:23:34;;;;;;;;;;;;;;;4.69;95.40;98027.56;3223876;23;19923;-79
2022/04/21 00:24:50;;;;;;;;;;;;;;;4.66;95.27;98022.38;3223316;23;19924;-79
2022/04/21 00:26:05;;;;;;;;;;;;;;;4.63;95.30;98019.84;3223307;23;19934;-79
2022/04/21 00:27:20;;;;;;;;;;;;;;;4.61;95.84;98021.59;3223704;23;19923;-79
2022/04/21 00:28:36;;;;;;;;;;;;;;;4.59;96.29;98019.00;3224256;23;20318;-79
2022/04/21 00:29:51;;;;;;;;;;;;;;;4.59;96.03;98018.16;3223715;23;19920;-80
2022/04/21 00:31:07;;;;;;;;;;;;;;;4.57;96.32;98010.38;3223571;23;19919;-80
2022/04/21 00:32:22;;;;;;;;;;;;;;;4.57;96.36;98010.38;3223599;23;19970;-79
2022/04/21 00:33:37;;;;;;;;;;;;;;;4.57;96.22;98010.38;3223740;22;19934;-79
2022/04/21 00:34:53;;;;;;;;;;;;;;;4.60;96.33;98012.09;3223363;23;19975;-79
2022/04/21 00:36:09;;;;;;;;;;;;;;;4.61;95.70;98009.50;3223794;22;19924;-78
2022/04/21 00:37:25;;;;;;;;;;;;;;;4.63;95.33;98010.34;3223740;22;19924;-80
2022/04/21 00:38:40;;;;;;;;;;;;;;;4.64;95.36;98009.47;3224130;22;19970;-82
2022/04/21 00:39:56;;;;;;;;;;;;;;;4.63;95.57;98007.75;3224132;23;19923;-79
2022/04/21 00:41:11;;;;;;;;;;;;;;;4.63;95.66;98010.34;3224209;22;20655;-80
2022/04/21 00:42:27;;;;;;;;;;;;;;;4.63;95.85;98010.34;3223767;22;19946;-79
2022/04/21 00:43:42;;;;;;;;;;;;;;;4.63;95.88;98014.66;3223813;23;19928;-80
2022/04/21 00:44:57;;;;;;;;;;;;;;;4.63;95.89;98012.06;3223809;22;19981;-79
2022/04/21 00:46:18;;;;;;;;;;;;;;;4.64;95.39;98017.25;3223958;22;19945;-79
2022/04/21 00:47:33;;;;;;;;;;;;;;;4.66;95.56;98005.09;3223750;22;19924;-82
2022/04/21 00:48:49;;;;;;;;;;;;;;;4.68;94.96;98010.28;3223779;23;20364;-80
2022/04/21 00:50:05;;;;;;;;;;;;;;;4.71;95.10;98009.38;3223887;22;20250;-79
2022/04/21 00:51:22;;;;;;;;;;;;;;;4.71;94.90;98009.38;3223778;22;19943;-79
2022/04/21 00:52:38;;;;;;;;;;;;;;;4.71;95.38;98011.97;3224974;22;20325;-78
2022/04/21 00:53:53;;;;;;;;;;;;;;;4.69;95.67;98011.13;3224737;22;20093;-80
2022/04/21 00:55:09;;;;;;;;;;;;;;;4.66;95.58;98005.09;3224757;23;20498;-79
2022/04/21 00:56:25;;;;;;;;;;;;;;;4.66;95.94;98006.84;3225026;22;19924;-79
2022/04/21 00:57:45;;;;;;;;;;;;;;;4.68;95.94;98009.41;3224794;22;19920;-80
2022/04/21 00:59:03;;;;;;;;;;;;;;;4.68;95.50;98009.41;3224086;22;19942;-79
2022/04/21 01:00:19;;;;;;;;;;;;;;;4.69;95.07;98008.53;3225135;22;19970;-81
2022/04/21 01:03:10;;;;;;;;;;;;;;;4.72;94.93;98004.19;3224681;23;19924;-79
2022/04/21 01:04:26;;;;;;;;;;;;;;;4.76;95.28;98002.44;3224867;22;19924;-79
2022/04/21 01:05:41;;;;;;;;;;;;;;;4.75;95.47;97992.91;3225141;22;19945;-79
2022/04/21 01:06:57;;;;;;;;;;;;;;;4.77;95.70;97996.34;3224932;23;19990;-79
2022/04/21 01:08:12;;;;;;;;;;;;;;;4.80;95.49;97997.16;3225211;22;20003;-79
2022/04/21 01:09:28;;;;;;;;;;;;;;;4.82;95.43;97994.56;3224453;23;20343;-79
2022/04/21 01:10:43;;;;;;;;;;;;;;;4.84;95.28;97997.16;3225289;23;19930;-79
2022/04/21 01:11:59;;;;;;;;;;;;;;;4.84;95.18;97992.78;3224305;22;19958;-79
2022/04/21 01:13:16;;;;;;;;;;;;;;;4.83;95.09;97991.09;3224796;22;19931;-79
2022/04/21 01:14:31;;;;;;;;;;;;;;;4.82;95.12;97989.38;3224333;22;19943;-81
2022/04/21 01:15:46;;;;;;;;;;;;;;;4.82;95.08;97991.97;3225101;22;20339;-79
2022/04/21 01:17:02;;;;;;;;;;;;;;;4.81;94.72;97991.09;3224786;23;19927;-78
2022/04/21 01:18:25;;;;;;;;;;;;;;;4.79;95.40;97994.59;3224960;23;19923;-79
2022/04/21 01:19:40;;;;;;;;;;;;;;;4.78;95.55;97995.47;3229978;22;20799;-80
2022/04/21 01:20:56;;;;;;;;;;;;;;;4.78;95.21;97988.53;3224941;22;19923;-79
2022/04/21 01:22:11;;;;;;;;;;;;;;;4.78;95.79;97992.88;3224641;23;19926;-80
2022/04/21 01:23:26;;;;;;;;;;;;;;;4.77;95.80;97992.00;3224883;22;19923;-80
2022/04/21 01:24:42;;;;;;;;;;;;;;;4.75;96.32;97991.19;3225054;23;19920;-79
2022/04/21 01:25:58;;;;;;;;;;;;;;;4.73;96.52;97986.88;3224728;23;20312;-80
2022/04/21 01:27:14;;;;;;;;;;;;;;;4.72;96.67;97987.75;3224765;22;20000;-79
2022/04/21 01:28:30;;;;;;;;;;;;;;;4.68;97.00;97991.25;3224713;22;19919;-79
2022/04/21 01:29:45;;;;;;;;;;;;;;;4.66;96.92;97991.28;3224822;22;20358;-79
2022/04/21 01:31:01;;;;;;;;;;;;;;;4.64;96.65;97983.53;3224712;23;19931;-79
2022/04/21 01:32:16;;;;;;;;;;;;;;;4.64;96.87;97988.72;3223862;23;19927;-83
2022/04/21 01:33:32;;;;;;;;;;;;;;;4.61;97.03;97986.16;3224788;23;20002;-80
2022/04/21 01:34:47;;;;;;;;;;;;;;;4.61;96.92;97980.97;3224449;22;19927;-81
2022/04/21 01:36:03;;;;;;;;;;;;;;;4.62;97.42;97976.63;3224494;23;19930;-80
2022/04/21 01:42:00;;;;;;;;;;;;;;;4.70;96.46;97979.13;3224493;23;20349;-79
2022/04/21 01:43:16;;;;;;;;;;;;;;;4.71;96.40;97970.47;3224660;22;19924;-80
2022/04/21 01:44:31;;;;;;;;;;;;;;;4.70;96.26;97969.63;3224434;22;19930;-79
2022/04/21 01:45:46;;;;;;;;;;;;;;;4.69;96.72;97969.66;3223829;22;19920;-80
2022/04/21 01:47:02;;;;;;;;;;;;;;;4.69;96.75;97967.06;3224481;23;19919;-79
2022/04/21 01:48:17;;;;;;;;;;;;;;;4.68;96.99;97973.13;3224652;22;19930;-79
2022/04/21 01:49:33;;;;;;;;;;;;;;;4.70;96.77;97968.75;3224900;22;19944;-79
2022/04/21 01:50:48;;;;;;;;;;;;;;;4.73;96.79;97973.91;3224877;23;19952;-79
2022/04/21 01:52:04;;;;;;;;;;;;;;;4.74;96.45;97966.13;3224492;23;19924;-79
2022/04/21 01:53:19;;;;;;;;;;;;;;;4.77;96.23;97967.84;3224439;22;19972;-79
2022/04/21 01:54:35;;;;;;;;;;;;;;;4.77;95.94;97960.06;3224463;22;19924;-79
2022/04/21 01:55:51;;;;;;;;;;;;;;;4.78;96.00;97966.94;3224892;22;19931;-79
2022/04/21 01:57:07;;;;;;;;;;;;;;;4.75;96.38;97962.66;3224131;22;19923;-79
2022/04/21 01:58:22;;;;;;;;;;;;;;;4.75;96.13;97959.19;3224662;23;19985;-82
2022/04/21 01:59:37;;;;;;;;;;;;;;;4.74;95.55;97962.66;3224661;23;19946;-79
2022/04/21 02:00:53;;;;;;;;;;;;;;;4.72;95.91;97967.88;3224205;23;19924;-79
2022/04/21 02:02:08;;;;;;;;;;;;;;;4.72;95.54;97961.81;3224102;23;19934;-79
2022/04/21 02:03:24;;;;;;;;;;;;;;;4.71;96.06;97963.56;3224378;22;19919;-79
2022/04/21 02:04:39;;;;;;;;;;;;;;;4.71;96.38;97960.97;3224253;22;19995;-79
2022/04/21 02:05:54;;;;;;;;;;;;;;;4.72;96.40;97960.09;3224532;23;19923;-79
2022/04/21 02:07:10;;;;;;;;;;;;;;;4.74;96.09;97958.34;3224301;23;20414;-80
2022/04/21 02:08:27;;;;;;;;;;;;;;;4.76;95.98;97963.53;3224480;23;20343;-79
2022/04/21 02:09:43;;;;;;;;;;;;;;;4.78;95.90;97961.75;3224614;22;20006;-82
2022/04/21 02:10:58;;;;;;;;;;;;;;;4.79;95.89;97968.66;3224546;23;19928;-78
2022/04/21 02:12:14;;;;;;;;;;;;;;;4.78;95.92;97964.34;3224608;23;19931;-78
2022/04/21 02:13:29;;;;;;;;;;;;;;;4.75;96.44;97961.78;3224956;22;19930;-79
2022/04/21 02:14:45;;;;;;;;;;;;;;;4.73;96.72;97963.53;3224698;22;19924;-78
2022/04/21 02:16:00;;;;;;;;;;;;;;;4.71;96.92;97960.97;3224493;23;19926;-79
2022/04/21 02:17:16;;;;;;;;;;;;;;;4.71;96.93;97965.28;3224699;23;19926;-79
2022/04/21 02:18:31;;;;;;;;;;;;;;;4.69;96.94;97962.75;3224256;22;19984;-78
2022/04/21 02:19:47;;;;;;;;;;;;;;;4.68;97.17;97963.63;3224499;23;20406;-78
2022/04/21 02:21:02;;;;;;;;;;;;;;;4.68;97.27;97960.16;3224633;23;20514;-78
2022/04/21 02:22:18;;;;;;;;;;;;;;;4.69;97.14;97961.88;3224353;23;19934;-79
2022/04/21 02:23:33;;;;;;;;;;;;;;;4.68;97.27;97960.16;3224627;23;19923;-80
2022/04/21 02:24:48;;;;;;;;;;;;;;;4.69;97.45;97959.28;3224583;22;19923;-80
2022/04/21 02:26:04;;;;;;;;;;;;;;;4.68;97.35;97957.56;3224552;22;19930;-79
2022/04/21 02:27:19;;;;;;;;;;;;;;;4.68;97.52;97961.03;3224592;23;19984;-79
2022/04/21 02:28:35;;;;;;;;;;;;;;;4.66;97.50;97961.03;3224682;22;20397;-83
2022/04/21 02:29:52;;;;;;;;;;;;;;;4.67;97.06;97959.28;3224625;23;19924;-82
2022/04/21 02:31:07;;;;;;;;;;;;;;;4.66;97.08;97961.03;3224693;23;19926;-78
2022/04/21 02:32:23;;;;;;;;;;;;;;;4.67;97.09;97954.09;3224523;23;20231;-79
2022/04/21 02:33:38;;;;;;;;;;;;;;;4.69;96.80;97959.28;3224397;22;20458;-79
2022/04/21 02:34:54;;;;;;;;;;;;;;;4.68;96.72;97958.44;3224457;23;19930;-78
2022/04/21 02:36:09;;;;;;;;;;;;;;;4.70;96.65;97956.66;3224382;22;19970;-80
2022/04/21 02:37:25;;;;;;;;;;;;;;;4.70;96.45;97955.81;3224856;23;19924;-79
2022/04/21 02:38:40;;;;;;;;;;;;;;;4.70;96.49;97948.03;3224660;23;19924;-79
2022/04/21 02:39:55;;;;;;;;;;;;;;;4.70;96.24;97953.22;3224334;23;19930;-79
2022/04/21 02:41:11;;;;;;;;;;;;;;;4.70;96.00;97946.31;3224458;23;20204;-79
2022/04/21 02:42:27;;;;;;;;;;;;;;;4.70;96.18;97950.63;3224614;22;20377;-79
2022/04/21 02:43:42;;;;;;;;;;;;;;;4.70;96.42;97945.44;3224478;23;19942;-79
2022/04/21 02:44:58;;;;;;;;;;;;;;;4.70;96.51;97942.84;3224738;22;19927;-79
2022/04/21 02:46:14;;;;;;;;;;;;;;;4.71;96.59;97947.13;3224440;22;20432;-78
2022/04/21 02:47:29;;;;;;;;;;;;;;;4.71;96.19;97949.72;3223932;23;20350;-79
2022/04/21 02:48:45;;;;;;;;;;;;;;;4.71;96.48;97941.97;3224475;22;20424;-79
2022/04/21 02:50:00;;;;;;;;;;;;;;;4.72;96.74;97946.25;3224029;23;19924;-80
2022/04/21 02:51:16;;;;;;;;;;;;;;;4.70;96.60;97945.44;3224671;22;19946;-79
2022/04/21 02:52:33;;;;;;;;;;;;;;;4.71;96.62;97944.53;3223929;22;19979;-79
2022/04/21 02:58:31;;;;;;;;;;;;;;;4.69;97.36;97931.63;3224268;23;19923;-79
2022/04/21 02:59:51;;;;;;;;;;;;;;;4.68;97.20;97940.28;3224434;22;19924;-79
2022/04/21 03:01:06;;;;;;;;;;;;;;;4.68;97.37;97937.69;3224053;22;19946;-79
2022/04/21 03:02:22;;;;;;;;;;;;;;;4.69;96.96;97931.63;3224249;22;20002;-79
2022/04/21 03:03:38;;;;;;;;;;;;;;;4.70;97.16;97937.66;3224593;22;19924;-80
2022/04/21 03:04:54;;;;;;;;;;;;;;;4.69;97.32;97930.75;3223456;23;19928;-79
2022/04/21 03:06:10;;;;;;;;;;;;;;;4.71;97.09;97926.41;3223829;23;20074;-79
2022/04/21 03:07:26;;;;;;;;;;;;;;;4.72;97.08;97926.38;3224278;22;20409;-79
2022/04/21 03:08:41;;;;;;;;;;;;;;;4.76;96.77;97929.81;3224469;23;19928;-79
2022/04/21 03:09:57;;;;;;;;;;;;;;;4.78;96.71;97923.69;3224259;22;19923;-78
2022/04/21 03:11:12;;;;;;;;;;;;;;;4.78;96.79;97926.28;3224268;23;19950;-79
2022/04/21 03:12:28;;;;;;;;;;;;;;;4.78;96.74;97921.09;3223750;23;19923;-79
2022/04/21 03:13:44;;;;;;;;;;;;;;;4.79;96.70;97916.78;3224446;22;20366;-84
2022/04/21 03:14:59;;;;;;;;;;;;;;;4.79;96.59;97916.78;3223556;23;19924;-80
2022/04/21 03:16:15;;;;;;;;;;;;;;;4.80;96.39;97921.09;3224194;22;19998;-80
2022/04/21 03:17:30;;;;;;;;;;;;;;;4.84;96.13;97924.53;3224299;23;19938;-79
2022/04/21 03:18:46;;;;;;;;;;;;;;;4.79;96.38;97921.97;3223922;22;20280;-80
2022/04/21 03:20:02;;;;;;;;;;;;;;;4.76;96.61;97925.47;3223833;22;19931;-83
2022/04/21 03:24:30;;;;;;;;;;;;;;;4.76;96.69;97924.63;3181581;22;20356;-80
2022/04/21 03:25:46;;;;;;;;;;;;;;;4.77;96.65;97923.75;3224397;22;19924;-79
2022/04/21 03:27:02;;;;;;;;;;;;;;;4.79;96.51;97916.78;3223585;22;20262;-81
2022/04/21 03:28:18;;;;;;;;;;;;;;;4.79;96.33;97921.97;3224377;23;19924;-82
2022/04/21 03:29:39;;;;;;;;;;;;;;;4.80;96.37;97923.69;3224074;23;20384;-80
2022/04/21 03:30:55;;;;;;;;;;;;;;;4.79;96.48;97927.16;3224243;22;19920;-79
2022/04/21 03:32:12;;;;;;;;;;;;;;;4.80;96.49;97923.69;3223860;23;19934;-81
2022/04/21 03:33:28;;;;;;;;;;;;;;;4.79;96.61;97920.22;3223705;22;19950;-80
2022/04/21 03:34:43;;;;;;;;;;;;;;;4.81;96.69;97922.81;3223941;22;19923;-80
2022/04/21 03:35:59;;;;;;;;;;;;;;;4.80;96.78;97914.16;3223752;22;20150;-80
2022/04/21 03:37:14;;;;;;;;;;;;;;;4.81;96.85;97915.88;3224198;23;19931;-79
2022/04/21 03:38:30;;;;;;;;;;;;;;;4.80;96.71;97919.34;3224262;22;19959;-79
2022/04/21 03:39:46;;;;;;;;;;;;;;;4.79;96.83;97912.44;3224027;23;19998;-80
2022/04/21 03:41:01;;;;;;;;;;;;;;;4.76;97.12;97915.09;3224317;22;19929;-80
2022/04/21 03:42:18;;;;;;;;;;;;;;;4.75;97.12;97922.88;3223452;22;19924;-80
2022/04/21 03:43:33;;;;;;;;;;;;;;;4.74;97.06;97921.16;3223612;22;19928;-80
2022/04/21 03:44:49;;;;;;;;;;;;;;;4.73;97.16;97916.84;3224229;23;19923;-80
2022/04/21 03:46:05;;;;;;;;;;;;;;;4.73;97.32;97922.03;3224142;22;20412;-79
2022/04/21 03:47:21;;;;;;;;;;;;;;;4.73;97.53;97919.44;3223671;22;19994;-81
2022/04/21 03:48:36;;;;;;;;;;;;;;;4.73;97.77;97922.91;3224262;22;19986;-80
2022/04/21 03:49:52;;;;;;;;;;;;;;;4.74;97.74;97921.16;3223707;23;20398;-79
2022/04/21 03:51:09;;;;;;;;;;;;;;;4.75;97.86;97920.28;3223952;22;20421;-80
2022/04/21 03:52:25;;;;;;;;;;;;;;;4.75;97.73;97915.97;3223769;22;19924;-79
2022/04/21 03:53:40;;;;;;;;;;;;;;;4.74;97.80;97914.25;3224190;23;19923;-79
2022/04/21 03:54:56;;;;;;;;;;;;;;;4.77;97.73;97918.56;3223918;23;19923;-79
2022/04/21 03:56:11;;;;;;;;;;;;;;;4.77;97.75;97915.97;3224241;23;19923;-80
2022/04/21 03:57:27;;;;;;;;;;;;;;;4.77;97.57;97909.03;3224006;23;20354;-80
2022/04/21 03:58:42;;;;;;;;;;;;;;;4.79;97.75;97911.59;3224456;22;20544;-80
2022/04/21 03:59:58;;;;;;;;;;;;;;;4.81;97.13;97917.63;3224468;22;19927;-79
2022/04/21 04:01:13;;;;;;;;;;;;;;;4.81;96.98;97913.28;3223711;23;19931;-79
2022/04/21 04:02:29;;;;;;;;;;;;;;;4.82;97.08;97916.75;3224020;22;19994;-80
2022/04/21 04:03:44;;;;;;;;;;;;;;;4.81;97.15;97910.69;3224209;23;19921;-84
2022/04/21 04:05:02;;;;;;;;;;;;;;;4.80;96.93;97914.16;3224163;22;19926;-78
2022/04/21 04:11:00;;;;;;;;;;;;;;;4.80;97.16;97927.13;3224065;23;20327;-78
2022/04/21 04:12:16;;;;;;;;;;;;;;;4.79;96.98;97924.56;3224173;22;19951;-80
2022/04/21 04:13:32;;;;;;;;;;;;;;;4.80;96.94;97924.53;3223758;23;19924;-80
2022/04/21 04:14:48;;;;;;;;;;;;;;;4.79;97.36;97930.59;3223963;22;19931;-80
2022/04/21 04:16:04;;;;;;;;;;;;;;;4.78;97.20;97926.28;3223156;22;19924;-78
2022/04/21 04:17:19;;;;;;;;;;;;;;;4.76;97.46;97929.81;3223253;22;19923;-78
2022/04/21 04:18:35;;;;;;;;;;;;;;;4.75;97.71;97928.06;3223681;23;19954;-77
2022/04/21 04:19:50;;;;;;;;;;;;;;;4.74;97.87;97924.63;3223486;23;20341;-78
2022/04/21 04:21:07;;;;;;;;;;;;;;;4.73;97.61;97929.81;3222648;23;19923;-84
2022/04/21 04:22:22;;;;;;;;;;;;;;;4.74;97.42;97928.94;3222719;23;19927;-78
2022/04/21 04:23:38;;;;;;;;;;;;;;;4.75;97.83;97933.25;3223883;23;19923;-81
2022/04/21 04:24:56;;;;;;;;;;;;;;;4.76;97.46;97929.81;3223841;23;20265;-83
2022/04/21 04:26:12;;;;;;;;;;;;;;;4.77;97.26;97940.13;3223527;23;20257;-80
2022/04/21 04:27:28;;;;;;;;;;;;;;;4.78;97.41;97935.81;3223458;23;19924;-78
2022/04/21 04:28:43;;;;;;;;;;;;;;;4.81;97.22;97940.97;3223488;22;19931;-78
2022/04/21 04:29:58;;;;;;;;;;;;;;;4.81;97.23;97941.81;3223454;22;19927;-78
2022/04/21 04:31:14;;;;;;;;;;;;;;;4.82;96.46;97934.91;3223531;23;19930;-80
2022/04/21 04:32:30;;;;;;;;;;;;;;;4.85;96.52;97937.44;3223281;23;20039;-78
2022/04/21 04:33:45;;;;;;;;;;;;;;;4.87;96.89;97942.63;3223975;22;19919;-78
2022/04/21 04:35:01;;;;;;;;;;;;;;;4.86;97.27;97940.91;3223656;22;19923;-80
2022/04/21 04:36:16;;;;;;;;;;;;;;;4.85;97.14;97934.00;3223063;22;19958;-79
2022/04/21 04:37:32;;;;;;;;;;;;;;;4.85;97.21;97937.44;3223342;22;19928;-77
2022/04/21 04:38:48;;;;;;;;;;;;;;;4.84;97.24;97940.91;3224063;22;19930;-79
2022/04/21 04:40:04;;;;;;;;;;;;;;;4.82;97.01;97942.69;3223537;22;20410;-79
2022/04/21 04:42:54;;;;;;;;;;;;;;;4.81;96.75;97946.16;3223244;23;20341;-78
2022/04/21 04:44:09;;;;;;;;;;;;;;;4.82;97.08;97953.06;3223615;22;20014;-77
2022/04/21 04:46:59;;;;;;;;;;;;;;;4.79;97.40;97946.16;3223029;23;20405;-77
2022/04/21 04:48:14;;;;;;;;;;;;;;;4.82;97.35;97947.88;3223521;23;19923;-80
2022/04/21 04:49:29;;;;;;;;;;;;;;;4.83;96.94;97947.00;3223822;22;20419;-78
2022/04/21 04:50:46;;;;;;;;;;;;;;;4.85;97.51;97952.16;3223258;23;19923;-79
2022/04/21 04:52:02;;;;;;;;;;;;;;;4.86;97.35;97944.34;3223451;22;19930;-77
2022/04/21 04:53:17;;;;;;;;;;;;;;;4.89;97.54;97948.66;3223981;22;19923;-77
2022/04/21 04:54:33;;;;;;;;;;;;;;;4.87;97.35;97951.25;3223349;23;19970;-80
2022/04/21 04:55:48;;;;;;;;;;;;;;;4.88;96.88;97947.78;3223514;22;19928;-78
2022/04/21 04:57:03;;;;;;;;;;;;;;;4.90;97.17;97946.03;3223240;23;19975;-77
2022/04/21 04:58:19;;;;;;;;;;;;;;;4.91;97.15;97950.34;3223328;23;20354;-77
2022/04/21 04:59:34;;;;;;;;;;;;;;;4.93;96.98;97947.72;3223438;23;20607;-78
2022/04/21 05:00:50;;;;;;;;;;;;;;;4.93;97.29;97948.59;3223276;23;19923;-79
2022/04/21 05:02:05;;;;;;;;;;;;;;;4.93;96.82;97945.13;3223098;23;19946;-78
2022/04/21 05:03:21;;;;;;;;;;;;;;;4.91;96.88;97942.56;3223230;22;19946;-79
2022/04/21 05:04:36;;;;;;;;;;;;;;;4.94;96.98;97944.25;3222933;22;19923;-79
2022/04/21 05:05:55;;;;;;;;;;;;;;;5.00;96.87;97951.97;3223215;23;20389;-78
2022/04/21 05:07:10;;;;;;;;;;;;;;;5.01;97.23;97951.09;3223295;22;20309;-79
2022/04/21 05:08:26;;;;;;;;;;;;;;;5.00;96.76;97957.16;3223482;23;19973;-78
2022/04/21 05:09:41;;;;;;;;;;;;;;;5.03;96.95;97956.22;3223365;23;19919;-78
2022/04/21 05:11:00;;;;;;;;;;;;;;;5.03;96.87;97953.63;3223342;22;19924;-78
2022/04/21 05:12:18;;;;;;;;;;;;;;;5.04;96.58;97957.97;3223434;22;19931;-78
2022/04/21 05:13:34;;;;;;;;;;;;;;;5.06;97.11;97962.25;3222788;22;19926;-78
2022/04/21 05:14:51;;;;;;;;;;;;;;;5.06;97.14;97957.06;3222566;22;19963;-81
2022/04/21 05:16:06;;;;;;;;;;;;;;;5.06;96.95;97961.41;3223092;22;20335;-86
2022/04/21 05:17:22;;;;;;;;;;;;;;;5.08;97.12;97957.88;3223336;23;19923;-84
2022/04/21 05:18:37;;;;;;;;;;;;;;;5.11;97.08;97959.59;3222593;23;19951;-81
2022/04/21 05:19:53;;;;;;;;;;;;;;;5.12;96.62;97960.47;3223423;23;19924;-82
2022/04/21 05:21:09;;;;;;;;;;;;;;;5.14;96.69;97964.72;3222655;22;19924;-81
2022/04/21 05:22:26;;;;;;;;;;;;;;;5.14;96.80;97959.53;3222776;22;19926;-84
2022/04/21 05:23:44;;;;;;;;;;;;;;;5.15;96.97;97966.44;3223238;22;19966;-81
2022/04/21 05:25:01;;;;;;;;;;;;;;;5.16;96.83;97962.97;3222842;22;19924;-82
2022/04/21 05:26:17;;;;;;;;;;;;;;;5.15;97.06;97963.84;3223231;22;20249;-82
2022/04/21 05:27:32;;;;;;;;;;;;;;;5.14;97.32;97961.31;3222910;23;19930;-83
2022/04/21 05:28:48;;;;;;;;;;;;;;;5.14;97.25;97953.50;3223211;22;19927;-81
2022/04/21 05:31:38;;;;;;;;;;;;;;;5.19;96.65;97956.91;3223066;23;19969;-87
2022/04/21 05:32:56;;;;;;;;;;;;;;;5.20;96.94;97951.69;3222839;22;19939;-82
2022/04/21 05:34:15;;;;;;;;;;;;;;;5.22;96.54;97955.13;3223400;22;19966;-81
2022/04/21 05:35:32;;;;;;;;;;;;;;;5.25;96.41;97954.22;3222433;22;20582;-83
2022/04/21 05:36:47;;;;;;;;;;;;;;;5.28;96.04;97956.78;3223119;23;19919;-82
2022/04/21 05:38:03;;;;;;;;;;;;;;;5.30;95.96;97952.41;3222899;23;19923;-82
2022/04/21 05:39:19;;;;;;;;;;;;;;;5.34;95.93;97958.41;3223832;23;19934;-82
2022/04/21 05:40:35;;;;;;;;;;;;;;;5.36;95.90;97954.06;3224173;22;19920;-81
2022/04/21 05:41:51;;;;;;;;;;;;;;;5.37;95.49;97951.41;3223555;23;19931;-83
2022/04/21 05:43:07;;;;;;;;;;;;;;;5.37;95.36;97958.38;3223429;23;19986;-83
2022/04/21 05:44:23;;;;;;;;;;;;;;;5.42;95.57;97958.31;3223532;23;19924;-83
2022/04/21 05:45:39;;;;;;;;;;;;;;;5.43;95.64;97965.22;3224520;22;19932;-82
2022/04/21 05:46:54;;;;;;;;;;;;;;;5.44;95.22;97965.16;3224785;22;19930;-82
2022/04/21 05:48:10;;;;;;;;;;;;;;;5.46;94.88;97957.38;3224797;22;19923;-83
2022/04/21 05:49:26;;;;;;;;;;;;;;;5.48;95.04;97966.88;3224593;22;19927;-83
2022/04/21 05:50:43;;;;;;;;;;;;;;;5.51;95.19;97964.22;3224852;22;20238;-82
2022/04/21 05:51:59;;;;;;;;;;;;;;;5.54;95.55;97960.72;3224831;22;20313;-82
2022/04/21 05:53:22;;;;;;;;;;;;;;;5.55;95.21;97962.44;3224336;22;19923;-82
2022/04/21 05:54:38;;;;;;;;;;;;;;;5.55;94.92;97954.66;3224519;22;19947;-82
2022/04/21 05:55:53;;;;;;;;;;;;;;;5.56;94.67;97960.69;3224813;22;19923;-82
2022/04/21 05:57:09;;;;;;;;;;;;;;;5.54;93.77;97957.25;3225071;22;19927;-82
2022/04/21 05:58:26;;;;;;;;;;;;;;;5.47;94.04;97948.69;3224888;23;19919;-83
2022/04/21 05:59:41;;;;;;;;;;;;;;;5.49;94.55;97954.72;3224841;22;19925;-82
2022/04/21 06:00:57;;;;;;;;;;;;;;;5.51;94.10;97953.81;3224596;23;20006;-82
2022/04/21 06:02:12;;;;;;;;;;;;;;;5.54;94.63;97959.84;3224664;22;19924;-81
2022/04/21 06:03:28;;;;;;;;;;;;;;;5.56;95.07;97961.56;3224614;23;19931;-82
2022/04/21 06:04:43;;;;;;;;;;;;;;;5.58;94.66;97953.72;3224763;22;19923;-82
2022/04/21 06:05:59;;;;;;;;;;;;;;;5.60;94.19;97963.22;3224613;23;19947;-81
2022/04/21 06:07:14;;;;;;;;;;;;;;;5.65;94.44;97957.94;3224657;23;19923;-81
2022/04/21 06:08:30;;;;;;;;;;;;;;;5.64;93.65;97962.25;3224655;22;19923;-81
2022/04/21 06:09:45;;;;;;;;;;;;;;;5.62;93.54;97958.84;3224823;23;19924;-81
2022/04/21 06:11:01;;;;;;;;;;;;;;;5.62;94.04;97952.81;3224777;23;20169;-80
2022/04/21 06:12:17;;;;;;;;;;;;;;;5.60;93.45;97958.00;3224696;22;19930;-86
2022/04/21 06:13:32;;;;;;;;;;;;;;;5.62;93.73;97960.59;3224559;22;19923;-81
2022/04/21 06:14:48;;;;;;;;;;;;;;;5.60;93.38;97960.59;3224402;23;20467;-81
2022/04/21 06:16:03;;;;;;;;;;;;;;;5.62;93.34;97963.19;3224662;22;19984;-81
2022/04/21 06:17:19;;;;;;;;;;;;;;;5.65;93.30;97952.75;3224774;23;19943;-82
2022/04/21 06:18:36;;;;;;;;;;;;;;;5.66;93.02;97959.66;3224979;22;19923;-82
2022/04/21 06:19:51;;;;;;;;;;;;;;;5.66;93.09;97959.66;3224672;22;19943;-82
2022/04/21 06:21:06;;;;;;;;;;;;;;;5.66;93.36;97959.66;3225082;22;19931;-81
2022/04/21 06:22:22;;;;;;;;;;;;;;;5.68;93.53;97963.09;3224898;22;19930;-85
2022/04/21 06:23:37;;;;;;;;;;;;;;;5.75;93.65;97958.66;3224404;23;19968;-83
2022/04/21 06:24:53;;;;;;;;;;;;;;;5.80;93.86;97949.91;3224564;22;20386;-81
2022/04/21 06:26:09;;;;;;;;;;;;;;;5.90;93.86;97954.94;3224696;22;19947;-82
2022/04/21 06:27:25;;;;;;;;;;;;;;;5.93;93.67;97949.69;3224601;22;19923;-82
2022/04/21 06:28:41;;;;;;;;;;;;;;;5.97;93.56;97955.69;3224576;22;19919;-84
2022/04/21 06:29:59;;;;;;;;;;;;;;;5.98;93.46;97953.06;3224571;22;19970;-81
2022/04/21 06:31:14;;;;;;;;;;;;;;;5.93;92.50;97942.75;3224556;22;20391;-82
2022/04/21 06:32:29;;;;;;;;;;;;;;;5.94;92.42;97952.28;3224264;23;19920;-82
2022/04/21 06:33:45;;;;;;;;;;;;;;;5.91;91.71;97952.31;3224160;23;20401;-82
2022/04/21 06:35:00;;;;;;;;;;;;;;;5.91;91.84;97949.72;3224724;22;20339;-82
2022/04/21 06:36:16;;;;;;;;;;;;;;;5.93;92.02;97950.53;3224215;22;19923;-83
2022/04/21 06:37:31;;;;;;;;;;;;;;;5.96;92.16;97948.78;3224881;22;19958;-81
2022/04/21 06:38:47;;;;;;;;;;;;;;;5.98;90.54;97952.22;3224610;22;20305;-82
2022/04/21 06:40:03;;;;;;;;;;;;;;;5.98;90.57;97950.47;3224738;23;20254;-87
2022/04/21 06:41:19;;;;;;;;;;;;;;;6.03;89.83;97940.91;3224669;22;20334;-83
2022/04/21 06:42:37;;;;;;;;;;;;;;;6.06;90.20;97948.63;3224366;23;19927;-83
2022/04/21 06:48:34;;;;;;;;;;;;;;;6.22;89.08;97946.63;3229493;23;19955;-82
2022/04/21 06:49:50;;;;;;;;;;;;;;;6.27;88.94;97949.13;3224138;22;20362;-82
2022/04/21 06:51:05;;;;;;;;;;;;;;;6.34;88.26;97948.13;3224333;23;19928;-83
2022/04/21 06:52:21;;;;;;;;;;;;;;;6.35;88.48;97946.38;3224666;22;19998;-83
2022/04/21 06:53:36;;;;;;;;;;;;;;;6.38;87.47;97950.66;3224287;22;19923;-82
2022/04/21 06:54:52;;;;;;;;;;;;;;;6.44;89.56;97947.97;3224293;22;19947;-82
2022/04/21 06:56:08;;;;;;;;;;;;;;;6.54;89.27;97953.84;3224715;23;20239;-82
2022/04/21 06:57:24;;;;;;;;;;;;;;;6.56;87.61;97955.50;3224391;22;19924;-82
2022/04/21 06:58:40;;;;;;;;;;;;;;;6.64;88.29;97955.38;3224489;22;19927;-83
2022/04/21 06:59:56;;;;;;;;;;;;;;;6.58;88.22;97948.53;3224469;22;19981;-82
2022/04/21 07:01:11;;;;;;;;;;;;;;;6.59;87.69;97952.84;3224209;22;19943;-82
2022/04/21 07:02:27;;;;;;;;;;;;;;;6.67;88.33;97957.03;3223839;23;19923;-82
2022/04/21 07:03:43;;;;;;;;;;;;;;;6.66;86.81;97956.19;3223859;22;19926;-82
2022/04/21 07:05:02;;;;;;;;;;;;;;;6.71;87.47;97961.31;3223911;22;20004;-83
2022/04/21 07:06:18;;;;;;;;;;;;;;;6.76;86.33;97957.69;3224082;22;20529;-84
2022/04/21 07:07:34;;;;;;;;;;;;;;;6.81;84.79;97949.81;3224106;22;19976;-84
2022/04/21 07:08:49;;;;;;;;;;;;;;;6.84;85.05;97957.53;3224712;22;19927;-83
2022/04/21 07:10:05;;;;;;;;;;;;;;;6.81;85.03;97955.00;3224395;23;20266;-82